createdAt,value
2022-10-28T00:01:03.440Z,1.57
2022-10-28T00:03:31.725Z,1.13
2022-10-28T00:06:04.945Z,1.50
2022-10-28T00:08:33.462Z,1.33
2022-10-28T00:11:12.370Z,1.10
2022-10-28T00:13:41.066Z,1.57
2022-10-28T00:16:11.925Z,1.60
2022-10-28T00:18:40.524Z,1.80
2022-10-28T00:21:13.008Z,1.20
2022-10-28T00:23:42.611Z,1.77
2022-10-28T00:26:12.779Z,1.20
2022-10-28T00:28:44.957Z,1.67
2022-10-28T00:31:14.204Z,1.20
2022-10-28T00:33:42.663Z,0.80
2022-10-28T00:36:14.769Z,1.20
2022-10-28T00:38:43.568Z,1.43
2022-10-28T00:41:13.123Z,1.67
2022-10-28T00:43:43.414Z,2.00
2022-10-28T00:46:18.124Z,1.60
2022-10-28T00:48:49.993Z,1.73
2022-10-28T00:51:20.972Z,1.30
2022-10-28T00:53:49.972Z,1.10
2022-10-28T00:56:18.353Z,1.27
2022-10-28T00:58:47.985Z,1.40
2022-10-28T01:01:16.319Z,0.80
2022-10-28T01:03:44.490Z,1.40
2022-10-28T01:06:12.653Z,1.30
2022-10-28T01:08:42.091Z,1.30
2022-10-28T01:11:20.100Z,1.03
2022-10-28T01:13:56.430Z,1.60
2022-10-28T01:16:33.329Z,1.10
2022-10-28T01:19:14.501Z,0.90
2022-10-28T01:21:57.539Z,0.83
2022-10-28T01:24:45.830Z,1.03
2022-10-28T01:27:41.798Z,1.60
2022-10-28T01:30:12.943Z,1.47
2022-10-28T01:32:57.517Z,1.50
2022-10-28T01:38:15.364Z,1.27
2022-10-28T01:40:47.389Z,1.27
2022-10-28T01:43:17.926Z,1.43
2022-10-28T01:45:51.772Z,1.37
2022-10-28T01:48:23.482Z,0.97
2022-10-28T01:50:55.276Z,1.20
2022-10-28T01:53:26.140Z,1.07
2022-10-28T01:55:55.711Z,1.77
2022-10-28T01:58:26.938Z,1.90
2022-10-28T02:00:55.067Z,1.17
2022-10-28T02:03:24.670Z,1.23
2022-10-28T02:05:54.889Z,1.17
2022-10-28T02:08:51.084Z,0.70
2022-10-28T02:11:40.401Z,1.13
2022-10-28T02:14:17.040Z,0.80
2022-10-28T02:16:49.975Z,1.73
2022-10-28T02:19:27.937Z,1.60
2022-10-28T02:22:03.463Z,1.37
2022-10-28T02:24:39.397Z,0.97
2022-10-28T02:27:13.907Z,1.47
2022-10-28T02:29:46.974Z,1.20
2022-10-28T02:32:17.535Z,1.10
2022-10-28T02:34:49.550Z,1.00
2022-10-28T02:37:21.849Z,1.00
2022-10-28T02:39:52.201Z,1.80
2022-10-28T02:42:24.174Z,0.73
2022-10-28T02:44:56.359Z,1.07
2022-10-28T02:47:27.219Z,1.10
2022-10-28T02:49:59.984Z,1.30
2022-10-28T02:52:30.871Z,1.30
2022-10-28T02:55:00.715Z,1.00
2022-10-28T02:57:33.525Z,1.20
2022-10-28T03:00:03.451Z,0.90
2022-10-28T03:02:31.575Z,1.20
2022-10-28T03:05:01.123Z,1.00
2022-10-28T03:07:29.307Z,0.87
2022-10-28T03:09:57.490Z,1.60
2022-10-28T03:12:25.589Z,2.20
2022-10-28T03:14:54.209Z,1.47
2022-10-28T03:17:22.387Z,1.50
2022-10-28T03:19:50.445Z,1.57
2022-10-28T03:22:19.811Z,1.40
2022-10-28T03:24:48.050Z,1.60
2022-10-28T03:27:16.037Z,1.60
2022-10-28T03:29:45.981Z,1.73
2022-10-28T03:32:14.366Z,1.10
2022-10-28T03:34:42.389Z,1.50
2022-10-28T03:37:10.688Z,1.47
2022-10-28T03:39:40.344Z,1.40
2022-10-28T03:42:08.370Z,1.80
2022-10-28T03:44:36.548Z,3.43
2022-10-28T03:47:04.549Z,2.40
2022-10-28T03:49:32.537Z,2.70
2022-10-28T03:52:00.827Z,1.80
2022-10-28T03:54:28.864Z,1.87
2022-10-28T03:56:58.252Z,1.90
2022-10-28T03:59:26.330Z,2.60
2022-10-28T04:01:54.580Z,2.80
2022-10-28T04:04:25.052Z,2.37
2022-10-28T04:06:55.154Z,2.20
2022-10-28T04:09:23.147Z,2.10
2022-10-28T04:11:51.239Z,1.40
2022-10-28T04:14:20.700Z,1.37
2022-10-28T04:16:48.743Z,3.00
2022-10-28T04:19:16.809Z,1.90
2022-10-28T04:21:45.121Z,2.47
2022-10-28T04:24:13.313Z,3.23
2022-10-28T04:26:41.279Z,3.40
2022-10-28T04:29:09.323Z,2.70
2022-10-28T04:31:38.680Z,2.20
2022-10-28T04:34:06.644Z,2.33
2022-10-28T04:36:34.672Z,2.60
2022-10-28T04:39:02.688Z,2.90
2022-10-28T04:41:30.934Z,2.60
2022-10-28T04:43:59.146Z,2.10
2022-10-28T04:46:27.194Z,1.97
2022-10-28T04:48:56.836Z,2.63
2022-10-28T04:51:24.894Z,2.80
2022-10-28T04:53:53.060Z,1.73
2022-10-28T04:56:21.032Z,2.10
2022-10-28T04:58:49.216Z,1.93
2022-10-28T05:01:17.301Z,3.10
2022-10-28T05:03:45.346Z,2.27
2022-10-28T05:06:14.987Z,2.30
2022-10-28T05:08:42.993Z,1.90
2022-10-28T05:11:11.095Z,1.87
2022-10-28T05:13:39.151Z,2.30
2022-10-28T05:16:08.307Z,2.90
2022-10-28T05:18:36.490Z,2.77
2022-10-28T05:21:04.758Z,3.13
2022-10-28T05:23:34.261Z,2.07
2022-10-28T05:26:02.237Z,3.43
2022-10-28T05:28:30.258Z,2.20
2022-10-28T05:30:58.394Z,2.20
2022-10-28T05:33:26.437Z,2.10
2022-10-28T05:35:54.590Z,2.30
2022-10-28T05:38:22.636Z,3.10
2022-10-28T05:40:52.297Z,5.70
2022-10-28T05:43:20.306Z,6.13
2022-10-28T05:45:53.491Z,8.63
2022-10-28T05:48:21.518Z,5.37
2022-10-28T05:50:49.490Z,3.33
2022-10-28T05:53:17.701Z,3.10
2022-10-28T05:55:47.837Z,2.47
2022-10-28T05:58:17.636Z,2.30
2022-10-28T06:00:45.685Z,2.30
2022-10-28T06:03:13.734Z,1.83
2022-10-28T06:05:44.135Z,2.27
2022-10-28T06:08:12.845Z,2.43
2022-10-28T06:10:41.164Z,2.20
2022-10-28T06:13:08.407Z,1.93
2022-10-28T06:15:37.814Z,1.47
2022-10-28T06:18:08.741Z,1.80
2022-10-28T06:20:36.821Z,1.70
2022-10-28T06:23:05.074Z,2.37
2022-10-28T06:25:33.110Z,2.37
2022-10-28T06:28:04.747Z,2.53
2022-10-28T06:30:33.878Z,1.80
2022-10-28T06:33:03.711Z,1.63
2022-10-28T06:35:31.725Z,2.40
2022-10-28T06:37:59.784Z,1.60
2022-10-28T06:40:28.388Z,2.43
2022-10-28T06:42:59.869Z,2.20
2022-10-28T06:45:28.459Z,1.70
2022-10-28T06:47:58.712Z,1.90
2022-10-28T06:50:28.876Z,2.13
2022-10-28T06:53:00.064Z,1.70
2022-10-28T06:55:29.013Z,1.80
2022-10-28T06:58:00.589Z,2.13
2022-10-28T07:00:28.886Z,2.60
2022-10-28T07:02:57.598Z,1.60
2022-10-28T07:05:28.461Z,1.90
2022-10-28T07:07:56.899Z,2.07
2022-10-28T07:10:25.091Z,1.83
2022-10-28T07:12:53.972Z,1.80
2022-10-28T07:15:28.582Z,2.50
2022-10-28T07:17:57.244Z,4.50
2022-10-28T07:20:27.346Z,2.77
2022-10-28T07:23:00.802Z,2.90
2022-10-28T07:25:29.681Z,2.67
2022-10-28T07:27:58.351Z,1.73
2022-10-28T07:30:26.460Z,1.60
2022-10-28T07:32:54.705Z,1.70
2022-10-28T07:35:23.254Z,1.83
2022-10-28T07:37:51.382Z,2.20
2022-10-28T07:40:27.683Z,2.43
2022-10-28T07:42:56.261Z,1.90
2022-10-28T07:45:24.724Z,2.73
2022-10-28T07:47:53.168Z,2.67
2022-10-28T07:50:21.290Z,1.87
2022-10-28T07:52:49.326Z,1.43
2022-10-28T07:55:17.410Z,1.43
2022-10-28T07:57:47.008Z,1.47
2022-10-28T08:00:15.325Z,1.17
2022-10-28T08:02:43.404Z,1.80
2022-10-28T08:05:11.427Z,1.00
2022-10-28T08:07:39.413Z,2.30
2022-10-28T08:10:08.226Z,1.70
2022-10-28T08:12:36.377Z,1.17
2022-10-28T08:15:09.470Z,1.57
2022-10-28T08:17:57.349Z,1.27
2022-10-28T08:20:25.901Z,1.60
2022-10-28T08:22:54.083Z,1.23
2022-10-28T08:25:22.440Z,1.97
2022-10-28T08:27:53.905Z,1.77
2022-10-28T08:30:26.109Z,3.47
2022-10-28T08:33:02.067Z,4.15
2022-10-28T08:35:36.484Z,2.37
2022-10-28T08:38:06.256Z,2.20
2022-10-28T08:40:41.457Z,1.97
2022-10-28T08:43:18.944Z,1.60
2022-10-28T08:45:51.109Z,2.10
2022-10-28T08:48:25.583Z,1.80
2022-10-28T08:50:56.338Z,1.97
2022-10-28T08:53:27.017Z,4.97
2022-10-28T08:55:57.007Z,2.23
2022-10-28T08:58:27.463Z,1.53
2022-10-28T09:00:59.965Z,2.10
2022-10-28T09:03:29.015Z,2.17
2022-10-28T09:06:05.811Z,2.13
2022-10-28T09:08:37.263Z,2.07
2022-10-28T09:11:15.196Z,2.40
2022-10-28T09:13:52.307Z,2.83
2022-10-28T09:16:29.943Z,2.53
2022-10-28T09:18:59.283Z,3.37
2022-10-28T09:21:33.701Z,2.20
2022-10-28T09:24:05.828Z,2.33
2022-10-28T09:26:41.079Z,3.17
2022-10-28T09:29:18.850Z,7.20
2022-10-28T09:31:49.521Z,1.80
2022-10-28T09:34:26.119Z,2.00
2022-10-28T09:36:56.126Z,1.90
2022-10-28T09:39:28.436Z,2.10
2022-10-28T09:41:58.811Z,2.23
2022-10-28T09:44:32.119Z,2.23
2022-10-28T09:47:02.086Z,2.43
2022-10-28T09:49:33.381Z,2.30
2022-10-28T09:52:05.916Z,2.60
2022-10-28T09:54:36.109Z,1.63
2022-10-28T09:57:04.745Z,2.30
2022-10-28T09:59:33.137Z,2.10
2022-10-28T10:02:03.940Z,2.23
2022-10-28T10:04:32.591Z,2.30
2022-10-28T10:07:04.697Z,1.83
2022-10-28T10:09:34.720Z,2.07
2022-10-28T10:12:06.962Z,2.50
2022-10-28T10:14:40.272Z,2.90
2022-10-28T10:17:14.063Z,2.60
2022-10-28T10:20:01.060Z,2.83
2022-10-28T10:22:31.802Z,2.10
2022-10-28T10:24:59.902Z,2.67
2022-10-28T10:27:28.872Z,2.70
2022-10-28T10:29:58.060Z,2.43
2022-10-28T10:32:29.972Z,2.40
2022-10-28T10:35:01.959Z,2.87
2022-10-28T10:37:30.965Z,2.70
2022-10-28T10:40:06.616Z,2.53
2022-10-28T10:42:42.528Z,2.53
2022-10-28T10:45:25.256Z,1.60
2022-10-28T10:48:15.363Z,2.47
2022-10-28T10:50:44.804Z,1.80
2022-10-28T10:53:21.128Z,1.80
2022-10-28T10:55:54.531Z,1.30
2022-10-28T10:58:24.274Z,1.80
2022-10-28T11:00:54.899Z,1.20
2022-10-28T11:03:26.560Z,1.90
2022-10-28T11:06:18.259Z,1.10
2022-10-28T11:08:45.141Z,2.03
2022-10-28T11:11:15.311Z,1.57
2022-10-28T11:13:46.155Z,1.17
2022-10-28T11:16:22.458Z,2.07
2022-10-28T11:18:53.110Z,1.53
2022-10-28T11:21:43.175Z,1.40
2022-10-28T11:24:31.537Z,1.60
2022-10-28T11:27:05.923Z,1.70
2022-10-28T11:29:34.527Z,1.30
2022-10-28T11:32:20.683Z,1.70
2022-10-28T11:35:12.452Z,1.60
2022-10-28T11:37:51.076Z,1.70
2022-10-28T11:40:30.866Z,1.60
2022-10-28T11:43:16.048Z,1.87
2022-10-28T11:45:51.236Z,1.57
2022-10-28T11:48:27.497Z,1.73
2022-10-28T11:51:04.275Z,1.50
2022-10-28T11:53:51.868Z,1.83
2022-10-28T11:56:29.661Z,1.40
2022-10-28T11:59:12.850Z,1.80
2022-10-28T12:01:52.408Z,1.70
2022-10-28T12:04:35.193Z,1.20
2022-10-28T12:07:18.761Z,1.67
2022-10-28T12:09:55.813Z,2.10
2022-10-28T12:12:29.790Z,1.40
2022-10-28T12:15:03.458Z,1.43
2022-10-28T12:17:38.786Z,1.30
2022-10-28T12:20:13.216Z,1.60
2022-10-28T12:22:48.025Z,1.60
2022-10-28T12:25:19.268Z,1.70
2022-10-28T12:27:50.470Z,1.63
2022-10-28T12:30:22.588Z,1.43
2022-10-28T12:32:54.386Z,1.33
2022-10-28T12:35:25.856Z,1.00
2022-10-28T12:38:00.021Z,1.87
2022-10-28T12:40:31.372Z,1.23
2022-10-28T12:43:03.348Z,1.17
2022-10-28T12:45:32.550Z,1.23
2022-10-28T12:48:02.448Z,1.27
2022-10-28T12:50:33.533Z,0.93
2022-10-28T12:53:19.742Z,1.40
2022-10-28T12:55:53.961Z,1.50
2022-10-28T12:58:25.570Z,1.10
2022-10-28T13:00:55.982Z,1.33
2022-10-28T13:03:24.176Z,1.60
2022-10-28T13:05:55.499Z,2.03
2022-10-28T13:11:44.140Z,1.27
2022-10-28T13:14:22.361Z,1.23
2022-10-28T13:17:07.781Z,1.63
2022-10-28T13:19:59.725Z,1.50
2022-10-28T13:22:44.892Z,1.40
2022-10-28T13:25:28.856Z,1.30
2022-10-28T13:27:57.937Z,1.47
2022-10-28T13:30:26.747Z,1.13
2022-10-28T13:33:03.536Z,1.30
2022-10-28T13:35:33.308Z,1.10
2022-10-28T13:38:02.897Z,1.70
2022-10-28T13:41:28.978Z,1.63
2022-10-28T13:44:23.969Z,1.00
2022-10-28T13:47:27.283Z,1.20
2022-10-28T13:50:26.585Z,1.00
2022-10-28T13:53:38.466Z,1.13
2022-10-28T13:56:18.082Z,1.30
2022-10-28T13:58:52.314Z,1.40
2022-10-28T14:02:08.029Z,1.17
2022-10-28T14:04:45.502Z,1.50
2022-10-28T14:07:23.037Z,1.20
2022-10-28T14:09:53.912Z,1.17
2022-10-28T14:12:28.566Z,1.30
2022-10-28T14:15:02.700Z,1.23
2022-10-28T14:17:48.294Z,1.80
2022-10-28T14:20:37.950Z,1.50
2022-10-28T14:23:43.645Z,1.90
2022-10-28T14:26:13.054Z,1.00
2022-10-28T14:28:52.068Z,1.90
2022-10-28T14:31:24.671Z,1.30
2022-10-28T14:34:35.270Z,1.40
2022-10-28T14:37:13.940Z,2.00
2022-10-28T14:39:42.686Z,1.40
2022-10-28T14:42:26.973Z,1.47
2022-10-28T14:45:21.956Z,1.17
2022-10-28T14:48:04.254Z,1.17
2022-10-28T14:50:39.682Z,1.10
2022-10-28T14:53:09.349Z,1.20
2022-10-28T14:55:38.132Z,1.50
2022-10-28T14:58:22.435Z,1.17
2022-10-28T15:00:57.063Z,1.60
2022-10-28T15:03:25.603Z,1.20
2022-10-28T15:05:55.380Z,1.80
2022-10-28T15:08:25.639Z,7.70
2022-10-28T15:10:53.746Z,1.40
2022-10-28T15:13:22.263Z,1.80
2022-10-28T15:15:54.505Z,1.50
2022-10-28T15:18:24.769Z,1.77
2022-10-28T15:21:13.077Z,1.47
2022-10-28T15:23:41.272Z,1.37
2022-10-28T15:26:11.886Z,2.23
2022-10-28T15:28:41.056Z,1.90
2022-10-28T15:31:09.253Z,1.90
2022-10-28T15:33:40.238Z,2.23
2022-10-28T15:36:16.655Z,2.20
2022-10-28T15:38:47.952Z,2.00
2022-10-28T15:41:49.147Z,2.37
2022-10-28T15:44:36.863Z,2.10
2022-10-28T15:47:17.582Z,2.23
2022-10-28T15:49:46.841Z,1.60
2022-10-28T15:52:37.024Z,2.40
2022-10-28T15:55:35.636Z,2.90
2022-10-28T15:58:36.773Z,1.97
2022-10-28T16:01:05.907Z,2.97
2022-10-28T16:03:44.759Z,4.10
2022-10-28T16:06:27.659Z,4.00
2022-10-28T16:09:04.914Z,3.80
2022-10-28T16:11:39.529Z,3.50
2022-10-28T16:14:30.019Z,3.77
2022-10-28T16:19:41.165Z,5.17
2022-10-28T16:22:13.100Z,4.80
2022-10-28T16:24:41.250Z,4.30
2022-10-28T16:27:21.758Z,3.70
2022-10-28T16:29:50.044Z,3.17
2022-10-28T16:32:20.160Z,9.80
2022-10-28T16:34:48.203Z,5.90
2022-10-28T16:37:22.358Z,7.10
2022-10-28T16:39:50.951Z,4.47
2022-10-28T16:42:20.990Z,3.20
2022-10-28T16:44:49.169Z,3.80
2022-10-28T16:47:18.981Z,2.63
2022-10-28T16:49:52.545Z,3.03
2022-10-28T16:52:25.387Z,2.40
2022-10-28T16:54:53.426Z,2.17
2022-10-28T16:59:51.976Z,1.87
2022-10-28T17:02:23.724Z,2.00
2022-10-28T17:04:51.846Z,2.20
2022-10-28T17:07:19.896Z,2.53
2022-10-28T17:09:48.067Z,2.07
2022-10-28T17:12:18.256Z,2.00
2022-10-28T17:14:47.788Z,2.43
2022-10-28T17:17:15.999Z,1.90
2022-10-28T17:19:45.647Z,1.93
2022-10-28T17:22:14.542Z,2.07
2022-10-28T17:24:42.758Z,2.00
2022-10-28T17:27:10.938Z,1.93
2022-10-28T17:29:39.130Z,2.10
2022-10-28T17:32:09.392Z,2.90
2022-10-28T17:34:39.652Z,2.83
2022-10-28T17:37:07.937Z,2.63
2022-10-28T17:39:35.917Z,2.47
2022-10-28T17:42:03.957Z,2.60
2022-10-28T17:44:31.986Z,3.53
2022-10-28T17:46:59.991Z,3.17
2022-10-28T17:49:29.926Z,3.37
2022-10-28T17:51:57.990Z,3.30
2022-10-28T17:54:26.019Z,6.23
2022-10-28T17:56:54.224Z,4.80
2022-10-28T17:59:24.091Z,3.83
2022-10-28T18:01:52.358Z,2.30
2022-10-28T18:04:26.081Z,4.27
2022-10-28T18:06:57.004Z,3.83
2022-10-28T18:09:25.261Z,4.33
2022-10-28T18:11:53.311Z,3.57
2022-10-28T18:14:21.508Z,4.80
2022-10-28T18:16:51.212Z,3.80
2022-10-28T18:19:19.461Z,5.10
2022-10-28T18:21:47.674Z,4.97
2022-10-28T18:24:19.547Z,4.30
2022-10-28T18:26:50.139Z,4.00
2022-10-28T18:29:18.112Z,3.67
2022-10-28T18:31:46.224Z,3.30
2022-10-28T18:34:14.314Z,4.37
2022-10-28T18:36:42.381Z,4.83
2022-10-28T18:39:10.327Z,4.90
2022-10-28T18:41:42.620Z,4.20
2022-10-28T18:44:13.037Z,4.17
2022-10-28T18:46:41.464Z,3.03
2022-10-28T18:49:09.461Z,3.17
2022-10-28T18:51:37.769Z,4.57
2022-10-28T18:54:06.037Z,5.83
2022-10-28T18:56:34.456Z,12.67
2022-10-28T18:59:05.384Z,17.50
2022-10-28T19:01:34.000Z,17.50
2022-10-28T19:04:04.257Z,11.00
2022-10-28T19:06:33.692Z,9.67
2022-10-28T19:09:03.353Z,7.60
2022-10-28T19:11:32.653Z,7.90
2022-10-28T19:14:02.521Z,6.67
2022-10-28T19:16:33.583Z,7.10
2022-10-28T19:19:02.671Z,5.40
2022-10-28T19:21:31.052Z,4.07
2022-10-28T19:23:59.395Z,2.10
2022-10-28T19:26:28.942Z,2.63
2022-10-28T19:28:56.963Z,2.40
2022-10-28T19:31:26.850Z,1.70
2022-10-28T19:33:56.657Z,1.80
2022-10-28T19:36:26.021Z,2.30
2022-10-28T19:38:54.796Z,1.73
2022-10-28T19:41:24.414Z,1.90
2022-10-28T19:43:57.886Z,2.00
2022-10-28T19:46:27.552Z,1.20
2022-10-28T19:48:58.302Z,1.97
2022-10-28T19:51:28.648Z,2.40
2022-10-28T19:53:57.765Z,1.93
2022-10-28T19:56:26.255Z,2.30
2022-10-28T19:58:57.058Z,2.33
2022-10-28T20:01:26.892Z,2.67
2022-10-28T20:03:56.979Z,2.33
2022-10-28T20:06:26.550Z,3.17
2022-10-28T20:08:55.134Z,3.23
2022-10-28T20:11:26.562Z,3.70
2022-10-28T20:13:55.862Z,2.27
2022-10-28T20:16:24.321Z,1.40
2022-10-28T20:18:52.306Z,1.63
2022-10-28T20:21:22.744Z,2.30
2022-10-28T20:23:53.998Z,2.17
2022-10-28T20:26:23.800Z,2.03
2022-10-28T20:28:52.274Z,1.30
2022-10-28T20:31:22.457Z,11.83
2022-10-28T20:33:52.555Z,2.77
2022-10-28T20:36:26.520Z,2.43
2022-10-28T20:38:55.682Z,4.20
2022-10-28T20:41:24.075Z,5.43
2022-10-28T20:43:52.983Z,12.23
2022-10-28T20:46:21.426Z,12.37
2022-10-28T20:48:50.182Z,8.73
2022-10-28T20:51:18.533Z,6.90
2022-10-28T20:53:48.035Z,8.30
2022-10-28T20:56:17.450Z,16.40
2022-10-28T20:58:45.497Z,18.40
2022-10-28T21:01:15.749Z,12.00
2022-10-28T21:03:44.291Z,10.37
2022-10-28T21:08:40.494Z,12.60
2022-10-28T21:11:12.086Z,5.53
2022-10-28T21:13:40.254Z,3.00
2022-10-28T21:16:10.097Z,3.07
2022-10-28T21:18:39.393Z,2.27
2022-10-28T21:21:08.261Z,3.10
2022-10-28T21:23:36.252Z,2.60
2022-10-28T21:26:07.376Z,3.20
2022-10-28T21:28:37.114Z,3.33
2022-10-28T21:31:07.157Z,3.73
2022-10-28T21:33:36.240Z,3.53
2022-10-28T21:36:06.549Z,4.03
2022-10-28T21:38:35.156Z,3.40
2022-10-28T21:41:04.731Z,7.40
2022-10-28T21:43:35.436Z,26.40
2022-10-28T21:46:06.279Z,10.77
2022-10-28T21:48:35.904Z,12.37
2022-10-28T21:51:08.639Z,3.83
2022-10-28T21:53:40.960Z,4.20
2022-10-28T21:56:16.270Z,3.00
2022-10-28T21:58:46.579Z,3.43
2022-10-28T22:01:17.557Z,2.87
2022-10-28T22:03:45.759Z,2.70
2022-10-28T22:06:14.001Z,2.83
2022-10-28T22:08:42.033Z,2.17
2022-10-28T22:11:13.623Z,3.83
2022-10-28T22:13:41.733Z,3.20
2022-10-28T22:16:12.336Z,2.53
2022-10-28T22:18:42.033Z,3.10
2022-10-28T22:21:12.315Z,4.30
2022-10-28T22:23:40.887Z,2.70
2022-10-28T22:26:11.342Z,2.10
2022-10-28T22:28:39.951Z,1.97
2022-10-28T22:31:10.526Z,2.07
2022-10-28T22:33:38.994Z,2.00
2022-10-28T22:36:10.954Z,1.77
2022-10-28T22:38:39.397Z,2.17
2022-10-28T22:41:10.926Z,1.60
2022-10-28T22:43:39.620Z,1.30
2022-10-28T22:46:08.625Z,1.50
2022-10-28T22:48:36.967Z,1.80
2022-10-28T22:51:05.537Z,1.70
2022-10-28T22:53:35.038Z,1.77
2022-10-28T22:56:03.312Z,1.30
2022-10-28T22:58:31.312Z,1.60
2022-10-28T23:01:06.723Z,2.00
2022-10-28T23:03:38.857Z,1.53
2022-10-28T23:06:07.477Z,1.97
2022-10-28T23:08:38.449Z,2.17
2022-10-28T23:11:06.992Z,2.63
2022-10-28T23:16:10.258Z,2.20
2022-10-28T23:18:38.894Z,1.80
2022-10-28T23:21:07.647Z,2.50
2022-10-28T23:23:37.116Z,1.50
2022-10-28T23:26:05.302Z,1.40
2022-10-28T23:28:34.068Z,1.90
2022-10-28T23:31:02.615Z,1.60
2022-10-28T23:33:31.704Z,1.90
2022-10-28T23:36:02.077Z,2.47
2022-10-28T23:38:30.079Z,2.53
2022-10-28T23:41:01.517Z,1.90
2022-10-28T23:43:30.367Z,2.20
2022-10-28T23:45:59.308Z,2.10
2022-10-28T23:48:28.385Z,2.23
2022-10-28T23:50:56.894Z,1.67
2022-10-28T23:53:26.186Z,1.60
2022-10-28T23:55:54.421Z,2.03
2022-10-28T23:58:24.043Z,1.93
